Wahpeton, MN

4:27 AM CST on November 13, 2019 (GMT -0600)
Stern

Weather History for KBWP - September, 2019

Change the Weather History Date:

Monday, September 23, 2019

  Actual Average (KFFM) Record (KFFM)
Temperature  
Mean Temperature 62 °F -  
Max Temperature 75 °F 62 °F 89 °F (2007)
Min Temperature 48 °F 41 °F 28 °F (1990)
Degree Days  
Heating Degree Days 4    
Growing Degree Days 12 (Base 50)    
Moisture  
Dew Point 45 °F    
Average Humidity 60    
Maximum Humidity 87    
Minimum Humidity 24    
Precipitation  
Precipitation 0.00 in - - ()
Sea Level Pressure  
Sea Level Pressure 29.90 in    
Wind  
Wind Speed 6 mph ()    
Max Wind Speed 14 mph    
Max Gust Speed 21 mph    
Visibility 10.0 miles    
Events      
Averages and records for this station are not official NWS values.
T = Trace of Precipitation, MM = Missing Value Source: Averaged Metar Reports

Daily Weather History Graph

Daily Weather History Graph

Search for Another Location

Airport or City:

Astronomy

Sep. 23, 2019 Rise Set
Actual Time 7:14 AM CDT 7:22 PM CDT
Civil Twilight 6:44 AM CDT 7:52 PM CDT
Nautical Twilight 6:09 AM CDT 8:27 PM CDT
Astronomical Twilight 5:33 AM CDT 9:03 PM CDT
Moon 12:36 AM CDT (9/23) 4:38 PM CDT (9/23)
Length of Visible Light 13h 07m
Length of Day
12h 08m
Waning Crescent, 33% of the Moon is Illuminated
Sep 23
Waning Crescent
Sep 28
New
Oct 5
First Quarter
Oct 13
Full
Oct 21
Last Quarter

Hourly Weather History & Observations

Time (CDT) Temp. Dew Point Humidity Pressure Visibility Wind Dir Wind Speed Gust Speed Precip Events Conditions
12:15 AM 55.4 °F 48.2 °F 77% 29.90 in 10.0 mi SSW 3.5 mph - N/A   Unknown
12:35 AM 55.4 °F 48.2 °F 77% 29.89 in 10.0 mi SSW 3.5 mph - N/A   Unknown
12:55 AM 53.6 °F 48.2 °F 82% 29.89 in 10.0 mi SSW 4.6 mph - N/A   Unknown
1:15 AM 53.6 °F 46.4 °F 77% 29.89 in 10.0 mi SSW 4.6 mph - N/A   Unknown
1:35 AM 53.6 °F 46.4 °F 77% 29.90 in 10.0 mi WSW 5.8 mph - N/A   Unknown
1:55 AM 51.8 °F 46.4 °F 82% 29.90 in 10.0 mi WSW 5.8 mph - N/A   Unknown
2:15 AM 51.8 °F 46.4 °F 82% 29.90 in 10.0 mi WSW 4.6 mph - N/A   Unknown
2:35 AM 51.8 °F 46.4 °F 82% 29.91 in 10.0 mi WSW 3.5 mph - N/A   Unknown
2:55 AM 51.8 °F 44.6 °F 76% 29.91 in 10.0 mi WSW 4.6 mph - N/A   Unknown
3:15 AM 51.8 °F 44.6 °F 76% 29.91 in 10.0 mi WSW 3.5 mph - N/A   Unknown
3:35 AM 50.0 °F 44.6 °F 82% 29.91 in 10.0 mi WSW 5.8 mph - N/A   Unknown
3:55 AM 50.0 °F 44.6 °F 82% 29.91 in 10.0 mi WSW 5.8 mph - N/A   Unknown
4:15 AM 50.0 °F 44.6 °F 82% 29.91 in 10.0 mi WSW 5.8 mph - N/A   Unknown
4:35 AM 50.0 °F 44.6 °F 82% 29.91 in 10.0 mi WSW 5.8 mph - N/A   Unknown
4:55 AM 50.0 °F 44.6 °F 82% 29.92 in 10.0 mi WSW 5.8 mph - N/A   Unknown
5:15 AM 50.0 °F 44.6 °F 82% 29.92 in 10.0 mi WSW 4.6 mph - N/A   Unknown
5:35 AM 50.0 °F 44.6 °F 82% 29.92 in 10.0 mi WSW 4.6 mph - N/A   Unknown
5:55 AM 48.2 °F 44.6 °F 87% 29.93 in 10.0 mi NW 3.5 mph - N/A   Unknown
6:15 AM 50.0 °F 44.6 °F 82% 29.93 in 10.0 mi WSW 3.5 mph - N/A   Unknown
6:35 AM 50.0 °F 44.6 °F 82% 29.93 in 10.0 mi SW 4.6 mph - N/A   Unknown
6:55 AM 48.2 °F 44.6 °F 87% 29.93 in 10.0 mi WSW 4.6 mph - N/A   Unknown
7:15 AM 50.0 °F 44.6 °F 82% 29.93 in 10.0 mi SW 4.6 mph - N/A   Unknown
7:55 AM 50.0 °F 46.4 °F 87% 29.94 in 10.0 mi SW 4.6 mph - N/A   Unknown
8:15 AM 51.8 °F 46.4 °F 82% 29.94 in 10.0 mi SW 4.6 mph - N/A   Unknown
8:35 AM 53.6 °F 46.4 °F 77% 29.94 in 10.0 mi WSW 4.6 mph - N/A   Unknown
8:55 AM 55.4 °F 48.2 °F 77% 29.95 in 10.0 mi WSW 8.1 mph - N/A   Unknown
9:15 AM 59.0 °F 48.2 °F 67% 29.95 in 10.0 mi WSW 8.1 mph - N/A   Unknown
9:35 AM 60.8 °F 50.0 °F 68% 29.95 in 10.0 mi WSW 6.9 mph - N/A   Unknown
9:55 AM 60.8 °F 50.0 °F 68% 29.95 in 10.0 mi WSW 6.9 mph - N/A   Unknown
10:15 AM 62.6 °F 50.0 °F 63% 29.95 in 10.0 mi WSW 4.6 mph - N/A   Unknown
10:35 AM 64.4 °F 48.2 °F 56% 29.96 in 10.0 mi West 6.9 mph - N/A   Unknown
10:55 AM 66.2 °F 50.0 °F 56% 29.96 in 10.0 mi WSW 5.8 mph - N/A   Unknown
11:15 AM 68.0 °F 48.2 °F 49% 29.96 in 10.0 mi South 4.6 mph - N/A   Unknown
11:35 AM 69.8 °F 48.2 °F 46% 29.95 in 10.0 mi South 6.9 mph - N/A   Unknown
11:55 AM 69.8 °F 48.2 °F 46% 29.95 in 10.0 mi SSW 6.9 mph - N/A   Unknown
12:15 PM 71.6 °F 44.6 °F 38% 29.95 in 10.0 mi SSW 6.9 mph - N/A   Unknown
12:35 PM 73.4 °F 39.2 °F 29% 29.94 in 10.0 mi WSW 5.8 mph - N/A   Unknown
12:55 PM 73.4 °F 41.0 °F 31% 29.94 in 10.0 mi SW 9.2 mph - N/A   Unknown
1:15 PM 73.4 °F 37.4 °F 27% 29.94 in 10.0 mi SW 10.4 mph - N/A   Unknown
1:35 PM 73.4 °F 37.4 °F 27% 29.93 in 10.0 mi West 10.4 mph 20.7 mph N/A   Unknown
1:55 PM 73.4 °F 37.4 °F 27% 29.92 in 10.0 mi WSW 13.8 mph 19.6 mph N/A   Unknown
2:15 PM 75.2 °F 37.4 °F 25% 29.92 in 10.0 mi West 12.7 mph 18.4 mph N/A   Unknown
2:35 PM 75.2 °F 37.4 °F 25% 29.92 in 10.0 mi WSW 12.7 mph - N/A   Unknown
2:55 PM 75.2 °F 37.4 °F 25% 29.91 in 10.0 mi SW 10.4 mph 17.3 mph N/A   Unknown
3:15 PM 75.2 °F 35.6 °F 24% 29.91 in 10.0 mi SW 12.7 mph - N/A   Unknown
3:35 PM 75.2 °F 37.4 °F 25% 29.90 in 10.0 mi WSW 11.5 mph 17.3 mph N/A   Unknown
3:55 PM 75.2 °F 39.2 °F 27% 29.90 in 10.0 mi SW 8.1 mph - N/A   Unknown
4:15 PM 75.2 °F 37.4 °F 25% 29.89 in 10.0 mi SW 5.8 mph - N/A   Unknown
4:35 PM 75.2 °F 37.4 °F 25% 29.88 in 10.0 mi SW 6.9 mph - N/A   Unknown
4:55 PM 75.2 °F 37.4 °F 25% 29.89 in 10.0 mi WSW 12.7 mph - N/A   Unknown
5:15 PM 75.2 °F 37.4 °F 25% 29.88 in 10.0 mi SW 10.4 mph - N/A   Unknown
5:35 PM 73.4 °F 37.4 °F 27% 29.88 in 10.0 mi SW 10.4 mph - N/A   Unknown
5:55 PM 73.4 °F 37.4 °F 27% 29.87 in 10.0 mi SW 9.2 mph - N/A   Unknown
6:15 PM 73.4 °F 41.0 °F 31% 29.87 in 7.0 mi SW 9.2 mph - N/A   Unknown
6:35 PM 71.6 °F 42.8 °F 35% 29.87 in 10.0 mi SW 5.8 mph - N/A   Unknown
6:55 PM 69.8 °F 44.6 °F 40% 29.87 in 10.0 mi SSW 4.6 mph - N/A   Unknown
7:15 PM 68.0 °F 46.4 °F 46% 29.87 in 10.0 mi SSW 5.8 mph - N/A   Unknown
7:35 PM 62.6 °F 50.0 °F 63% 29.87 in 10.0 mi South 6.9 mph - N/A   Unknown
7:55 PM 60.8 °F 48.2 °F 63% 29.87 in 10.0 mi South 6.9 mph - N/A   Unknown
8:15 PM 59.0 °F 48.2 °F 67% 29.87 in 10.0 mi South 8.1 mph - N/A   Unknown
8:35 PM 59.0 °F 48.2 °F 67% 29.86 in 10.0 mi South 8.1 mph - N/A   Unknown
8:55 PM 59.0 °F 48.2 °F 67% 29.86 in 10.0 mi South 8.1 mph - N/A   Unknown
9:15 PM 59.0 °F 46.4 °F 63% 29.86 in 10.0 mi South 8.1 mph - N/A   Unknown
9:35 PM 57.2 °F 46.4 °F 67% 29.85 in 10.0 mi South 8.1 mph - N/A   Unknown
9:55 PM 57.2 °F 48.2 °F 72% 29.85 in 10.0 mi South 9.2 mph - N/A   Unknown
10:15 PM 57.2 °F 48.2 °F 72% 29.85 in 10.0 mi South 8.1 mph - N/A   Unknown
10:35 PM 57.2 °F 48.2 °F 72% 29.84 in 10.0 mi South 9.2 mph - N/A   Unknown
10:55 PM 57.2 °F 48.2 °F 72% 29.84 in 10.0 mi South 8.1 mph - N/A   Unknown
11:15 PM 55.4 °F 50.0 °F 82% 29.84 in 10.0 mi South 9.2 mph - N/A   Unknown
11:35 PM 55.4 °F 50.0 °F 82% 29.84 in 10.0 mi South 9.2 mph - N/A   Unknown
11:55 PM 55.4 °F 50.0 °F 82% 29.83 in 10.0 mi South 8.1 mph - N/A   Unknown